sensor_id;sensor_type;location;lat;lon;timestamp;P1;durP1;ratioP1;P2;durP2;ratioP2
30818;SDS011;17546;42.674;23.284;2023-07-02T00:01:33;15.10;;;6.88;;
30818;SDS011;17546;42.674;23.284;2023-07-02T00:03:58;21.08;;;8.20;;
30818;SDS011;17546;42.674;23.284;2023-07-02T00:06:24;16.25;;;7.32;;
30818;SDS011;17546;42.674;23.284;2023-07-02T00:08:50;14.27;;;7.40;;
30818;SDS011;17546;42.674;23.284;2023-07-02T00:11:15;14.32;;;7.88;;
30818;SDS011;17546;42.674;23.284;2023-07-02T00:13:41;15.23;;;7.63;;
30818;SDS011;17546;42.674;23.284;2023-07-02T00:16:08;12.30;;;6.78;;
30818;SDS011;17546;42.674;23.284;2023-07-02T00:18:33;19.42;;;7.35;;
30818;SDS011;17546;42.674;23.284;2023-07-02T00:21:02;13.13;;;6.68;;
30818;SDS011;17546;42.674;23.284;2023-07-02T00:23:29;16.42;;;7.28;;
30818;SDS011;17546;42.674;23.284;2023-07-02T00:25:55;14.40;;;6.50;;
30818;SDS011;17546;42.674;23.284;2023-07-02T00:28:22;18.08;;;7.05;;
30818;SDS011;17546;42.674;23.284;2023-07-02T00:30:47;12.95;;;6.90;;
30818;SDS011;17546;42.674;23.284;2023-07-02T00:33:12;16.45;;;7.45;;
30818;SDS011;17546;42.674;23.284;2023-07-02T00:35:38;12.88;;;6.85;;
30818;SDS011;17546;42.674;23.284;2023-07-02T00:38:03;19.98;;;7.15;;
30818;SDS011;17546;42.674;23.284;2023-07-02T00:40:29;16.30;;;6.90;;
30818;SDS011;17546;42.674;23.284;2023-07-02T00:42:54;14.93;;;7.32;;
30818;SDS011;17546;42.674;23.284;2023-07-02T00:45:21;16.73;;;8.02;;
30818;SDS011;17546;42.674;23.284;2023-07-02T00:47:47;17.10;;;7.53;;
30818;SDS011;17546;42.674;23.284;2023-07-02T00:50:12;16.40;;;7.18;;
30818;SDS011;17546;42.674;23.284;2023-07-02T00:52:38;16.02;;;6.75;;
30818;SDS011;17546;42.674;23.284;2023-07-02T00:55:04;15.45;;;6.80;;
30818;SDS011;17546;42.674;23.284;2023-07-02T00:57:30;12.95;;;7.18;;
30818;SDS011;17546;42.674;23.284;2023-07-02T00:59:56;13.43;;;7.07;;
30818;SDS011;17546;42.674;23.284;2023-07-02T01:02:25;14.57;;;7.38;;
30818;SDS011;17546;42.674;23.284;2023-07-02T01:04:51;13.82;;;6.43;;
30818;SDS011;17546;42.674;23.284;2023-07-02T01:07:22;15.77;;;6.70;;
30818;SDS011;17546;42.674;23.284;2023-07-02T01:09:48;15.70;;;6.45;;
30818;SDS011;17546;42.674;23.284;2023-07-02T01:12:14;17.83;;;7.25;;
30818;SDS011;17546;42.674;23.284;2023-07-02T01:14:44;13.93;;;6.78;;
30818;SDS011;17546;42.674;23.284;2023-07-02T01:17:17;14.95;;;7.13;;
30818;SDS011;17546;42.674;23.284;2023-07-02T01:19:51;16.75;;;8.05;;
30818;SDS011;17546;42.674;23.284;2023-07-02T01:22:23;16.35;;;7.90;;
30818;SDS011;17546;42.674;23.284;2023-07-02T01:24:50;12.65;;;7.25;;
30818;SDS011;17546;42.674;23.284;2023-07-02T01:27:16;14.90;;;7.10;;
30818;SDS011;17546;42.674;23.284;2023-07-02T01:29:42;15.70;;;7.30;;
30818;SDS011;17546;42.674;23.284;2023-07-02T01:32:10;14.57;;;6.95;;
30818;SDS011;17546;42.674;23.284;2023-07-02T01:34:36;12.30;;;6.80;;
30818;SDS011;17546;42.674;23.284;2023-07-02T01:37:02;22.75;;;7.15;;
30818;SDS011;17546;42.674;23.284;2023-07-02T01:39:28;14.73;;;7.82;;
30818;SDS011;17546;42.674;23.284;2023-07-02T01:41:55;14.55;;;7.47;;
30818;SDS011;17546;42.674;23.284;2023-07-02T01:44:31;15.55;;;8.18;;
30818;SDS011;17546;42.674;23.284;2023-07-02T01:46:57;17.52;;;7.53;;
30818;SDS011;17546;42.674;23.284;2023-07-02T01:49:23;18.08;;;8.30;;
30818;SDS011;17546;42.674;23.284;2023-07-02T01:51:49;16.83;;;8.13;;
30818;SDS011;17546;42.674;23.284;2023-07-02T01:54:19;19.38;;;8.40;;
30818;SDS011;17546;42.674;23.284;2023-07-02T01:56:46;16.13;;;8.38;;
30818;SDS011;17546;42.674;23.284;2023-07-02T01:59:11;14.75;;;7.65;;
30818;SDS011;17546;42.674;23.284;2023-07-02T02:01:37;19.63;;;8.45;;
30818;SDS011;17546;42.674;23.284;2023-07-02T02:04:09;17.55;;;8.07;;
30818;SDS011;17546;42.674;23.284;2023-07-02T02:06:35;17.80;;;8.23;;
30818;SDS011;17546;42.674;23.284;2023-07-02T02:09:02;13.38;;;7.40;;
30818;SDS011;17546;42.674;23.284;2023-07-02T02:11:29;14.73;;;7.82;;
30818;SDS011;17546;42.674;23.284;2023-07-02T02:13:58;15.38;;;7.55;;
30818;SDS011;17546;42.674;23.284;2023-07-02T02:16:26;15.25;;;8.18;;
30818;SDS011;17546;42.674;23.284;2023-07-02T02:18:52;13.45;;;7.22;;
30818;SDS011;17546;42.674;23.284;2023-07-02T02:21:18;13.77;;;7.50;;
30818;SDS011;17546;42.674;23.284;2023-07-02T02:23:44;16.83;;;8.10;;
30818;SDS011;17546;42.674;23.284;2023-07-02T02:26:09;15.23;;;7.00;;
30818;SDS011;17546;42.674;23.284;2023-07-02T02:28:35;15.73;;;8.18;;
30818;SDS011;17546;42.674;23.284;2023-07-02T02:31:00;14.90;;;7.90;;
30818;SDS011;17546;42.674;23.284;2023-07-02T02:33:26;14.25;;;7.60;;
30818;SDS011;17546;42.674;23.284;2023-07-02T02:35:51;12.80;;;7.82;;
30818;SDS011;17546;42.674;23.284;2023-07-02T02:38:17;14.90;;;8.05;;
30818;SDS011;17546;42.674;23.284;2023-07-02T02:40:42;16.23;;;8.00;;
30818;SDS011;17546;42.674;23.284;2023-07-02T02:43:08;15.77;;;7.97;;
30818;SDS011;17546;42.674;23.284;2023-07-02T02:45:33;17.70;;;8.13;;
30818;SDS011;17546;42.674;23.284;2023-07-02T02:47:59;15.70;;;8.48;;
30818;SDS011;17546;42.674;23.284;2023-07-02T02:50:24;18.00;;;8.43;;
30818;SDS011;17546;42.674;23.284;2023-07-02T02:52:51;19.40;;;8.77;;
30818;SDS011;17546;42.674;23.284;2023-07-02T02:55:16;16.45;;;8.50;;
30818;SDS011;17546;42.674;23.284;2023-07-02T02:57:42;18.23;;;8.13;;
30818;SDS011;17546;42.674;23.284;2023-07-02T03:00:08;17.80;;;8.25;;
30818;SDS011;17546;42.674;23.284;2023-07-02T03:02:34;16.00;;;7.57;;
30818;SDS011;17546;42.674;23.284;2023-07-02T03:05:00;18.95;;;7.32;;
30818;SDS011;17546;42.674;23.284;2023-07-02T03:07:31;19.80;;;7.15;;
30818;SDS011;17546;42.674;23.284;2023-07-02T03:09:57;16.25;;;7.22;;
30818;SDS011;17546;42.674;23.284;2023-07-02T03:12:27;14.40;;;7.80;;
30818;SDS011;17546;42.674;23.284;2023-07-02T03:14:52;17.10;;;7.13;;
30818;SDS011;17546;42.674;23.284;2023-07-02T03:17:20;20.73;;;8.40;;
30818;SDS011;17546;42.674;23.284;2023-07-02T03:19:46;17.45;;;8.10;;
30818;SDS011;17546;42.674;23.284;2023-07-02T03:22:12;17.85;;;8.00;;
30818;SDS011;17546;42.674;23.284;2023-07-02T03:24:38;13.65;;;7.45;;
30818;SDS011;17546;42.674;23.284;2023-07-02T03:27:03;14.90;;;7.55;;
30818;SDS011;17546;42.674;23.284;2023-07-02T03:29:29;14.90;;;7.43;;
30818;SDS011;17546;42.674;23.284;2023-07-02T03:31:54;15.73;;;7.60;;
30818;SDS011;17546;42.674;23.284;2023-07-02T03:34:20;15.50;;;7.30;;
30818;SDS011;17546;42.674;23.284;2023-07-02T03:36:47;14.77;;;7.35;;
30818;SDS011;17546;42.674;23.284;2023-07-02T03:39:12;14.82;;;7.65;;
30818;SDS011;17546;42.674;23.284;2023-07-02T03:41:38;16.80;;;8.00;;
30818;SDS011;17546;42.674;23.284;2023-07-02T03:44:03;20.42;;;8.25;;
30818;SDS011;17546;42.674;23.284;2023-07-02T03:46:29;16.17;;;7.93;;
30818;SDS011;17546;42.674;23.284;2023-07-02T03:48:56;19.15;;;8.52;;
30818;SDS011;17546;42.674;23.284;2023-07-02T03:51:21;17.92;;;7.57;;
30818;SDS011;17546;42.674;23.284;2023-07-02T03:53:47;18.15;;;8.25;;
30818;SDS011;17546;42.674;23.284;2023-07-02T03:56:12;15.95;;;7.75;;
30818;SDS011;17546;42.674;23.284;2023-07-02T03:58:39;16.75;;;7.82;;
30818;SDS011;17546;42.674;23.284;2023-07-02T04:01:05;17.02;;;7.65;;
30818;SDS011;17546;42.674;23.284;2023-07-02T04:03:30;15.75;;;7.68;;
30818;SDS011;17546;42.674;23.284;2023-07-02T04:05:55;18.60;;;7.93;;
30818;SDS011;17546;42.674;23.284;2023-07-02T04:08:21;18.05;;;8.43;;
30818;SDS011;17546;42.674;23.284;2023-07-02T04:10:47;15.48;;;7.78;;
30818;SDS011;17546;42.674;23.284;2023-07-02T04:13:12;16.23;;;7.90;;
30818;SDS011;17546;42.674;23.284;2023-07-02T04:15:38;15.23;;;7.53;;
30818;SDS011;17546;42.674;23.284;2023-07-02T04:18:03;13.35;;;7.43;;
30818;SDS011;17546;42.674;23.284;2023-07-02T04:20:29;16.52;;;7.13;;
30818;SDS011;17546;42.674;23.284;2023-07-02T04:22:55;17.05;;;7.22;;
30818;SDS011;17546;42.674;23.284;2023-07-02T04:25:20;18.73;;;6.95;;
30818;SDS011;17546;42.674;23.284;2023-07-02T04:27:46;17.13;;;7.68;;
30818;SDS011;17546;42.674;23.284;2023-07-02T04:30:12;14.98;;;7.47;;
30818;SDS011;17546;42.674;23.284;2023-07-02T04:32:39;18.30;;;8.10;;
30818;SDS011;17546;42.674;23.284;2023-07-02T04:35:05;16.85;;;8.20;;
30818;SDS011;17546;42.674;23.284;2023-07-02T04:37:34;22.58;;;8.02;;
30818;SDS011;17546;42.674;23.284;2023-07-02T04:40:00;19.63;;;8.50;;
30818;SDS011;17546;42.674;23.284;2023-07-02T04:42:27;19.25;;;8.68;;
30818;SDS011;17546;42.674;23.284;2023-07-02T04:44:53;17.50;;;7.85;;
30818;SDS011;17546;42.674;23.284;2023-07-02T04:47:19;22.42;;;8.07;;
30818;SDS011;17546;42.674;23.284;2023-07-02T04:49:44;15.40;;;7.78;;
30818;SDS011;17546;42.674;23.284;2023-07-02T04:52:10;17.92;;;8.50;;
30818;SDS011;17546;42.674;23.284;2023-07-02T04:54:35;16.35;;;8.27;;
30818;SDS011;17546;42.674;23.284;2023-07-02T04:57:01;18.75;;;8.38;;
30818;SDS011;17546;42.674;23.284;2023-07-02T04:59:27;22.90;;;8.52;;
30818;SDS011;17546;42.674;23.284;2023-07-02T05:01:52;19.95;;;7.85;;
30818;SDS011;17546;42.674;23.284;2023-07-02T05:04:17;21.80;;;8.50;;
30818;SDS011;17546;42.674;23.284;2023-07-02T05:06:43;21.77;;;7.93;;
30818;SDS011;17546;42.674;23.284;2023-07-02T05:09:08;22.65;;;8.48;;
30818;SDS011;17546;42.674;23.284;2023-07-02T05:11:34;17.60;;;8.68;;
30818;SDS011;17546;42.674;23.284;2023-07-02T05:13:59;21.38;;;8.52;;
30818;SDS011;17546;42.674;23.284;2023-07-02T05:16:24;17.10;;;8.00;;
30818;SDS011;17546;42.674;23.284;2023-07-02T05:18:50;18.35;;;8.30;;
30818;SDS011;17546;42.674;23.284;2023-07-02T05:21:18;19.33;;;8.60;;
30818;SDS011;17546;42.674;23.284;2023-07-02T05:23:44;23.10;;;8.60;;
30818;SDS011;17546;42.674;23.284;2023-07-02T05:26:10;19.40;;;8.57;;
30818;SDS011;17546;42.674;23.284;2023-07-02T05:28:36;15.85;;;8.15;;
30818;SDS011;17546;42.674;23.284;2023-07-02T05:31:01;19.85;;;8.05;;
30818;SDS011;17546;42.674;23.284;2023-07-02T05:33:26;17.45;;;8.48;;
30818;SDS011;17546;42.674;23.284;2023-07-02T05:35:52;20.00;;;8.50;;
30818;SDS011;17546;42.674;23.284;2023-07-02T05:38:18;16.40;;;8.35;;
30818;SDS011;17546;42.674;23.284;2023-07-02T05:40:44;21.23;;;9.07;;
30818;SDS011;17546;42.674;23.284;2023-07-02T05:43:10;16.98;;;8.20;;
30818;SDS011;17546;42.674;23.284;2023-07-02T05:45:35;27.42;;;8.65;;
30818;SDS011;17546;42.674;23.284;2023-07-02T05:48:01;18.13;;;9.18;;
30818;SDS011;17546;42.674;23.284;2023-07-02T05:50:26;15.55;;;8.70;;
30818;SDS011;17546;42.674;23.284;2023-07-02T05:52:52;18.60;;;9.05;;
30818;SDS011;17546;42.674;23.284;2023-07-02T05:55:17;19.40;;;9.32;;
30818;SDS011;17546;42.674;23.284;2023-07-02T05:57:42;23.67;;;9.93;;
30818;SDS011;17546;42.674;23.284;2023-07-02T06:00:08;28.00;;;10.10;;
30818;SDS011;17546;42.674;23.284;2023-07-02T06:02:34;21.38;;;9.82;;
30818;SDS011;17546;42.674;23.284;2023-07-02T06:04:59;21.98;;;9.15;;
30818;SDS011;17546;42.674;23.284;2023-07-02T06:07:26;20.65;;;8.90;;
30818;SDS011;17546;42.674;23.284;2023-07-02T06:09:52;26.13;;;9.00;;
30818;SDS011;17546;42.674;23.284;2023-07-02T06:12:18;21.92;;;8.90;;
30818;SDS011;17546;42.674;23.284;2023-07-02T06:14:43;19.20;;;9.30;;
30818;SDS011;17546;42.674;23.284;2023-07-02T06:17:09;20.30;;;9.20;;
30818;SDS011;17546;42.674;23.284;2023-07-02T06:19:36;21.58;;;9.30;;
30818;SDS011;17546;42.674;23.284;2023-07-02T06:22:02;21.25;;;9.48;;
30818;SDS011;17546;42.674;23.284;2023-07-02T06:24:27;18.60;;;8.80;;
30818;SDS011;17546;42.674;23.284;2023-07-02T06:26:52;22.05;;;9.35;;
30818;SDS011;17546;42.674;23.284;2023-07-02T06:29:18;19.90;;;9.15;;
30818;SDS011;17546;42.674;23.284;2023-07-02T06:31:43;21.75;;;8.95;;
30818;SDS011;17546;42.674;23.284;2023-07-02T06:34:09;23.70;;;10.98;;
30818;SDS011;17546;42.674;23.284;2023-07-02T06:36:34;18.13;;;8.95;;
30818;SDS011;17546;42.674;23.284;2023-07-02T06:39:00;15.77;;;9.45;;
30818;SDS011;17546;42.674;23.284;2023-07-02T06:41:26;21.50;;;9.85;;
30818;SDS011;17546;42.674;23.284;2023-07-02T06:43:51;25.35;;;10.10;;
30818;SDS011;17546;42.674;23.284;2023-07-02T06:46:17;21.63;;;8.90;;
30818;SDS011;17546;42.674;23.284;2023-07-02T06:48:43;20.63;;;9.25;;
30818;SDS011;17546;42.674;23.284;2023-07-02T06:51:09;18.63;;;9.57;;
30818;SDS011;17546;42.674;23.284;2023-07-02T06:53:37;18.98;;;9.50;;
30818;SDS011;17546;42.674;23.284;2023-07-02T06:56:03;21.05;;;9.13;;
30818;SDS011;17546;42.674;23.284;2023-07-02T06:58:28;23.20;;;9.45;;
30818;SDS011;17546;42.674;23.284;2023-07-02T07:00:54;21.25;;;9.35;;
30818;SDS011;17546;42.674;23.284;2023-07-02T07:03:19;19.30;;;8.77;;
30818;SDS011;17546;42.674;23.284;2023-07-02T07:05:44;18.13;;;8.80;;
30818;SDS011;17546;42.674;23.284;2023-07-02T07:08:10;20.08;;;9.00;;
30818;SDS011;17546;42.674;23.284;2023-07-02T07:10:35;20.60;;;8.65;;
30818;SDS011;17546;42.674;23.284;2023-07-02T07:13:01;16.20;;;8.02;;
30818;SDS011;17546;42.674;23.284;2023-07-02T07:15:29;15.88;;;8.07;;
30818;SDS011;17546;42.674;23.284;2023-07-02T07:17:55;16.65;;;8.07;;
30818;SDS011;17546;42.674;23.284;2023-07-02T07:20:21;15.80;;;8.85;;
30818;SDS011;17546;42.674;23.284;2023-07-02T07:22:46;22.05;;;8.73;;
30818;SDS011;17546;42.674;23.284;2023-07-02T07:25:11;15.10;;;8.77;;
30818;SDS011;17546;42.674;23.284;2023-07-02T07:27:37;17.35;;;8.57;;
30818;SDS011;17546;42.674;23.284;2023-07-02T07:30:02;21.67;;;9.45;;
30818;SDS011;17546;42.674;23.284;2023-07-02T07:32:28;19.73;;;8.93;;
30818;SDS011;17546;42.674;23.284;2023-07-02T07:34:53;26.02;;;9.05;;
30818;SDS011;17546;42.674;23.284;2023-07-02T07:37:19;17.05;;;8.63;;
30818;SDS011;17546;42.674;23.284;2023-07-02T07:39:44;14.82;;;7.90;;
30818;SDS011;17546;42.674;23.284;2023-07-02T07:42:10;23.50;;;8.38;;
30818;SDS011;17546;42.674;23.284;2023-07-02T07:44:35;15.75;;;8.73;;
30818;SDS011;17546;42.674;23.284;2023-07-02T07:47:01;19.63;;;7.97;;
30818;SDS011;17546;42.674;23.284;2023-07-02T07:49:26;21.45;;;8.75;;
30818;SDS011;17546;42.674;23.284;2023-07-02T07:51:52;16.33;;;7.82;;
30818;SDS011;17546;42.674;23.284;2023-07-02T07:54:17;16.98;;;8.30;;
30818;SDS011;17546;42.674;23.284;2023-07-02T07:56:42;13.00;;;7.85;;
30818;SDS011;17546;42.674;23.284;2023-07-02T07:59:08;19.90;;;7.80;;
30818;SDS011;17546;42.674;23.284;2023-07-02T08:01:33;17.60;;;8.18;;
30818;SDS011;17546;42.674;23.284;2023-07-02T08:03:59;17.45;;;7.45;;
30818;SDS011;17546;42.674;23.284;2023-07-02T08:06:24;16.77;;;7.95;;
30818;SDS011;17546;42.674;23.284;2023-07-02T08:08:50;17.08;;;7.90;;
30818;SDS011;17546;42.674;23.284;2023-07-02T08:11:15;18.92;;;7.88;;
30818;SDS011;17546;42.674;23.284;2023-07-02T08:13:40;17.33;;;8.18;;
30818;SDS011;17546;42.674;23.284;2023-07-02T08:16:07;16.20;;;7.65;;
30818;SDS011;17546;42.674;23.284;2023-07-02T08:18:34;16.95;;;7.38;;
30818;SDS011;17546;42.674;23.284;2023-07-02T08:20:59;15.48;;;7.70;;
30818;SDS011;17546;42.674;23.284;2023-07-02T08:23:25;12.30;;;6.75;;
30818;SDS011;17546;42.674;23.284;2023-07-02T08:25:50;13.52;;;7.13;;
30818;SDS011;17546;42.674;23.284;2023-07-02T08:28:15;14.90;;;6.95;;
30818;SDS011;17546;42.674;23.284;2023-07-02T08:30:41;12.77;;;7.20;;
30818;SDS011;17546;42.674;23.284;2023-07-02T08:33:06;18.00;;;7.45;;
30818;SDS011;17546;42.674;23.284;2023-07-02T08:35:32;13.02;;;7.80;;
30818;SDS011;17546;42.674;23.284;2023-07-02T08:37:57;11.18;;;7.10;;
30818;SDS011;17546;42.674;23.284;2023-07-02T08:40:24;15.85;;;7.80;;
30818;SDS011;17546;42.674;23.284;2023-07-02T08:42:49;13.00;;;7.63;;
30818;SDS011;17546;42.674;23.284;2023-07-02T08:45:15;14.98;;;7.20;;
30818;SDS011;17546;42.674;23.284;2023-07-02T08:47:44;15.30;;;7.28;;
30818;SDS011;17546;42.674;23.284;2023-07-02T08:50:13;13.50;;;7.00;;
30818;SDS011;17546;42.674;23.284;2023-07-02T08:52:39;16.23;;;7.93;;
30818;SDS011;17546;42.674;23.284;2023-07-02T08:55:04;12.85;;;7.47;;
30818;SDS011;17546;42.674;23.284;2023-07-02T08:57:30;14.57;;;7.88;;
30818;SDS011;17546;42.674;23.284;2023-07-02T08:59:55;14.75;;;6.80;;
30818;SDS011;17546;42.674;23.284;2023-07-02T09:02:31;11.65;;;6.18;;
30818;SDS011;17546;42.674;23.284;2023-07-02T09:04:58;11.50;;;7.10;;
30818;SDS011;17546;42.674;23.284;2023-07-02T09:07:25;11.80;;;7.20;;
30818;SDS011;17546;42.674;23.284;2023-07-02T09:09:50;10.52;;;6.53;;
30818;SDS011;17546;42.674;23.284;2023-07-02T09:12:22;18.02;;;6.65;;
30818;SDS011;17546;42.674;23.284;2023-07-02T09:15:04;14.48;;;6.65;;
30818;SDS011;17546;42.674;23.284;2023-07-02T09:17:31;14.15;;;6.90;;
30818;SDS011;17546;42.674;23.284;2023-07-02T09:19:59;19.65;;;6.53;;
30818;SDS011;17546;42.674;23.284;2023-07-02T09:22:26;14.02;;;6.07;;
30818;SDS011;17546;42.674;23.284;2023-07-02T09:24:52;10.85;;;6.32;;
30818;SDS011;17546;42.674;23.284;2023-07-02T09:27:19;16.00;;;6.18;;
30818;SDS011;17546;42.674;23.284;2023-07-02T09:29:49;14.20;;;6.90;;
30818;SDS011;17546;42.674;23.284;2023-07-02T09:32:23;14.10;;;6.70;;
30818;SDS011;17546;42.674;23.284;2023-07-02T09:34:50;13.25;;;6.60;;
30818;SDS011;17546;42.674;23.284;2023-07-02T09:37:15;15.07;;;6.88;;
30818;SDS011;17546;42.674;23.284;2023-07-02T09:39:41;11.00;;;6.72;;
30818;SDS011;17546;42.674;23.284;2023-07-02T09:42:07;13.35;;;7.05;;
30818;SDS011;17546;42.674;23.284;2023-07-02T09:44:34;12.07;;;6.15;;
30818;SDS011;17546;42.674;23.284;2023-07-02T09:47:04;20.45;;;6.88;;
30818;SDS011;17546;42.674;23.284;2023-07-02T09:49:32;11.32;;;6.03;;
30818;SDS011;17546;42.674;23.284;2023-07-02T09:52:03;13.77;;;6.80;;
30818;SDS011;17546;42.674;23.284;2023-07-02T09:54:33;11.95;;;6.25;;
30818;SDS011;17546;42.674;23.284;2023-07-02T09:56:59;10.35;;;5.97;;
30818;SDS011;17546;42.674;23.284;2023-07-02T09:59:27;12.82;;;6.22;;
30818;SDS011;17546;42.674;23.284;2023-07-02T10:01:53;11.90;;;6.00;;
30818;SDS011;17546;42.674;23.284;2023-07-02T10:04:19;13.30;;;5.80;;
30818;SDS011;17546;42.674;23.284;2023-07-02T10:09:19;12.48;;;6.18;;
30818;SDS011;17546;42.674;23.284;2023-07-02T10:11:45;12.13;;;6.03;;
30818;SDS011;17546;42.674;23.284;2023-07-02T10:14:11;10.07;;;5.72;;
30818;SDS011;17546;42.674;23.284;2023-07-02T10:16:50;13.10;;;6.05;;
30818;SDS011;17546;42.674;23.284;2023-07-02T10:19:19;13.43;;;6.47;;
30818;SDS011;17546;42.674;23.284;2023-07-02T10:21:45;8.52;;;5.70;;
30818;SDS011;17546;42.674;23.284;2023-07-02T10:24:14;14.55;;;6.65;;
30818;SDS011;17546;42.674;23.284;2023-07-02T10:26:53;9.68;;;6.05;;
30818;SDS011;17546;42.674;23.284;2023-07-02T10:29:24;14.25;;;6.50;;
30818;SDS011;17546;42.674;23.284;2023-07-02T10:31:53;11.80;;;6.00;;
30818;SDS011;17546;42.674;23.284;2023-07-02T10:34:32;10.55;;;5.82;;
30818;SDS011;17546;42.674;23.284;2023-07-02T10:37:02;8.13;;;5.63;;
30818;SDS011;17546;42.674;23.284;2023-07-02T10:39:31;11.65;;;5.50;;
30818;SDS011;17546;42.674;23.284;2023-07-02T10:42:04;11.85;;;6.00;;
30818;SDS011;17546;42.674;23.284;2023-07-02T10:44:31;9.32;;;5.78;;
30818;SDS011;17546;42.674;23.284;2023-07-02T10:46:57;9.27;;;5.72;;
30818;SDS011;17546;42.674;23.284;2023-07-02T10:49:29;8.45;;;5.57;;
30818;SDS011;17546;42.674;23.284;2023-07-02T10:51:57;14.93;;;5.60;;
30818;SDS011;17546;42.674;23.284;2023-07-02T10:54:25;12.05;;;5.30;;
30818;SDS011;17546;42.674;23.284;2023-07-02T10:56:56;11.90;;;5.05;;
30818;SDS011;17546;42.674;23.284;2023-07-02T10:59:25;10.70;;;4.70;;
30818;SDS011;17546;42.674;23.284;2023-07-02T11:01:51;7.43;;;4.32;;
30818;SDS011;17546;42.674;23.284;2023-07-02T11:04:16;6.22;;;4.30;;
30818;SDS011;17546;42.674;23.284;2023-07-02T11:06:43;11.07;;;4.82;;
30818;SDS011;17546;42.674;23.284;2023-07-02T11:09:18;7.93;;;4.70;;
30818;SDS011;17546;42.674;23.284;2023-07-02T11:11:58;8.50;;;4.43;;
30818;SDS011;17546;42.674;23.284;2023-07-02T11:14:28;9.43;;;5.40;;
30818;SDS011;17546;42.674;23.284;2023-07-02T11:17:04;11.82;;;5.80;;
30818;SDS011;17546;42.674;23.284;2023-07-02T11:19:31;9.50;;;5.20;;
30818;SDS011;17546;42.674;23.284;2023-07-02T11:22:00;10.20;;;5.03;;
30818;SDS011;17546;42.674;23.284;2023-07-02T11:26:57;9.73;;;4.65;;
30818;SDS011;17546;42.674;23.284;2023-07-02T11:29:24;9.10;;;4.72;;
30818;SDS011;17546;42.674;23.284;2023-07-02T11:31:50;14.73;;;5.38;;
30818;SDS011;17546;42.674;23.284;2023-07-02T11:34:16;9.93;;;5.20;;
30818;SDS011;17546;42.674;23.284;2023-07-02T11:36:43;9.73;;;5.30;;
30818;SDS011;17546;42.674;23.284;2023-07-02T11:39:08;14.73;;;5.90;;
30818;SDS011;17546;42.674;23.284;2023-07-02T11:41:38;13.43;;;5.30;;
30818;SDS011;17546;42.674;23.284;2023-07-02T11:44:04;10.57;;;5.13;;
30818;SDS011;17546;42.674;23.284;2023-07-02T11:46:30;7.53;;;4.93;;
30818;SDS011;17546;42.674;23.284;2023-07-02T11:48:56;9.93;;;4.70;;
30818;SDS011;17546;42.674;23.284;2023-07-02T11:51:21;6.63;;;4.50;;
30818;SDS011;17546;42.674;23.284;2023-07-02T11:53:47;7.25;;;3.40;;
30818;SDS011;17546;42.674;23.284;2023-07-02T11:56:12;5.57;;;3.50;;
30818;SDS011;17546;42.674;23.284;2023-07-02T11:58:38;6.00;;;3.63;;
30818;SDS011;17546;42.674;23.284;2023-07-02T12:01:04;7.82;;;3.65;;
30818;SDS011;17546;42.674;23.284;2023-07-02T12:03:29;5.82;;;3.42;;
30818;SDS011;17546;42.674;23.284;2023-07-02T12:05:57;5.20;;;3.50;;
30818;SDS011;17546;42.674;23.284;2023-07-02T12:08:23;6.00;;;4.00;;
30818;SDS011;17546;42.674;23.284;2023-07-02T12:10:48;8.25;;;4.00;;
30818;SDS011;17546;42.674;23.284;2023-07-02T12:13:13;6.05;;;4.03;;
30818;SDS011;17546;42.674;23.284;2023-07-02T12:15:40;5.65;;;3.95;;
30818;SDS011;17546;42.674;23.284;2023-07-02T12:18:06;9.60;;;4.57;;
30818;SDS011;17546;42.674;23.284;2023-07-02T12:20:32;8.30;;;4.78;;
30818;SDS011;17546;42.674;23.284;2023-07-02T12:22:57;7.63;;;4.65;;
30818;SDS011;17546;42.674;23.284;2023-07-02T12:25:23;19.75;;;5.22;;
30818;SDS011;17546;42.674;23.284;2023-07-02T12:27:48;10.60;;;5.35;;
30818;SDS011;17546;42.674;23.284;2023-07-02T12:30:14;12.27;;;6.15;;
30818;SDS011;17546;42.674;23.284;2023-07-02T12:32:42;10.10;;;5.18;;
30818;SDS011;17546;42.674;23.284;2023-07-02T12:35:09;8.68;;;5.75;;
30818;SDS011;17546;42.674;23.284;2023-07-02T12:37:35;10.27;;;5.20;;
30818;SDS011;17546;42.674;23.284;2023-07-02T12:40:07;8.82;;;5.32;;
30818;SDS011;17546;42.674;23.284;2023-07-02T12:42:33;14.23;;;6.05;;
30818;SDS011;17546;42.674;23.284;2023-07-02T12:44:58;10.77;;;5.70;;
30818;SDS011;17546;42.674;23.284;2023-07-02T12:47:24;12.48;;;6.03;;
30818;SDS011;17546;42.674;23.284;2023-07-02T12:49:50;8.77;;;5.50;;
30818;SDS011;17546;42.674;23.284;2023-07-02T12:52:16;8.65;;;5.22;;
30818;SDS011;17546;42.674;23.284;2023-07-02T12:54:41;12.45;;;5.53;;
30818;SDS011;17546;42.674;23.284;2023-07-02T12:57:07;14.95;;;5.95;;
30818;SDS011;17546;42.674;23.284;2023-07-02T12:59:32;12.80;;;5.13;;
30818;SDS011;17546;42.674;23.284;2023-07-02T13:01:58;8.93;;;5.80;;
30818;SDS011;17546;42.674;23.284;2023-07-02T13:04:23;9.63;;;5.75;;
30818;SDS011;17546;42.674;23.284;2023-07-02T13:06:52;11.40;;;5.97;;
30818;SDS011;17546;42.674;23.284;2023-07-02T13:09:17;8.57;;;5.25;;
30818;SDS011;17546;42.674;23.284;2023-07-02T13:11:42;8.13;;;5.18;;
30818;SDS011;17546;42.674;23.284;2023-07-02T13:14:08;10.73;;;5.80;;
30818;SDS011;17546;42.674;23.284;2023-07-02T13:16:33;10.77;;;5.60;;
30818;SDS011;17546;42.674;23.284;2023-07-02T13:18:59;9.77;;;5.57;;
30818;SDS011;17546;42.674;23.284;2023-07-02T13:21:26;8.77;;;5.60;;
30818;SDS011;17546;42.674;23.284;2023-07-02T13:23:52;9.13;;;5.65;;
30818;SDS011;17546;42.674;23.284;2023-07-02T13:26:17;11.20;;;5.45;;
30818;SDS011;17546;42.674;23.284;2023-07-02T13:28:42;9.10;;;5.22;;
30818;SDS011;17546;42.674;23.284;2023-07-02T13:31:08;11.43;;;5.63;;
30818;SDS011;17546;42.674;23.284;2023-07-02T13:33:35;14.60;;;5.97;;
30818;SDS011;17546;42.674;23.284;2023-07-02T13:36:00;11.88;;;6.35;;
30818;SDS011;17546;42.674;23.284;2023-07-02T13:38:26;10.60;;;6.15;;
30818;SDS011;17546;42.674;23.284;2023-07-02T13:40:51;10.75;;;5.82;;
30818;SDS011;17546;42.674;23.284;2023-07-02T13:43:17;9.52;;;5.97;;
30818;SDS011;17546;42.674;23.284;2023-07-02T13:45:42;12.18;;;6.10;;
30818;SDS011;17546;42.674;23.284;2023-07-02T13:48:08;11.43;;;6.60;;
30818;SDS011;17546;42.674;23.284;2023-07-02T13:50:33;11.65;;;5.45;;
30818;SDS011;17546;42.674;23.284;2023-07-02T13:52:59;13.55;;;6.72;;
30818;SDS011;17546;42.674;23.284;2023-07-02T13:55:24;11.25;;;5.93;;
30818;SDS011;17546;42.674;23.284;2023-07-02T13:57:53;10.23;;;6.13;;
30818;SDS011;17546;42.674;23.284;2023-07-02T14:00:20;12.38;;;6.15;;
30818;SDS011;17546;42.674;23.284;2023-07-02T14:02:46;13.20;;;6.18;;
30818;SDS011;17546;42.674;23.284;2023-07-02T14:05:11;13.43;;;6.38;;
30818;SDS011;17546;42.674;23.284;2023-07-02T14:07:37;15.35;;;7.32;;
30818;SDS011;17546;42.674;23.284;2023-07-02T14:10:02;15.30;;;7.15;;
30818;SDS011;17546;42.674;23.284;2023-07-02T14:12:28;14.00;;;7.25;;
30818;SDS011;17546;42.674;23.284;2023-07-02T14:14:53;17.92;;;7.35;;
30818;SDS011;17546;42.674;23.284;2023-07-02T14:17:19;13.10;;;7.05;;
30818;SDS011;17546;42.674;23.284;2023-07-02T14:19:44;15.80;;;7.43;;
30818;SDS011;17546;42.674;23.284;2023-07-02T14:22:10;14.85;;;7.75;;
30818;SDS011;17546;42.674;23.284;2023-07-02T14:24:35;14.63;;;7.22;;